Time;durP1;ratioP1;P1;durP2;ratioP2;P2;SDS_P1;SDS_P2;PMS_P1;PMS_P2;Temp;Humidity;BMP_temperature;BMP_pressure;BME280_temperature;BME280_humidity;BME280_pressure;Samples;Min_cycle;Max_cycle;Signal;HPM_P1;HPM_P2
2023/04/06 00:05:36;;;;;;;12.90;8.00;;;;;;;3.50;49.69;99429.09;220788;193;665781;-64
2023/04/06 00:28:30;;;;;;;15.80;8.70;;;;;;;3.35;50.59;99416.17;220421;189;683022;-65
2023/04/06 00:33:36;;;;;;;16.40;8.20;;;;;;;3.33;50.62;99413.76;220709;188;136212;-66
2023/04/06 00:38:46;;;;;;;15.70;8.60;;;;;;;3.28;50.84;99416.01;221963;185;145043;-65
2023/04/06 00:44:47;;;;;;;;;;;;;;;;;;;;;
2023/04/06 00:50:33;;;;;;;15.80;8.40;;;;;;;3.18;50.77;99405.92;223547;185;137629;-65
2023/04/06 00:55:54;;;;;;;15.10;8.70;;;;;;;3.14;50.89;99406.02;223715;184;143796;-65
2023/04/06 01:07:18;;;;;;;17.10;9.20;;;;;;;3.07;50.71;99399.00;223579;185;135895;-69
2023/04/06 01:12:39;;;;;;;16.70;9.00;;;;;;;3.06;50.70;99393.25;223624;185;143864;-67
2023/04/06 01:18:28;;;;;;;14.60;8.60;;;;;;;3.06;50.47;99387.13;223639;185;138603;-67
2023/04/06 02:21:28;;;;;;;18.60;10.40;;;;;;;2.68;51.92;99371.45;223806;188;137007;-65
2023/04/06 02:33:21;;;;;;;19.80;10.30;;;;;;;2.59;52.06;99369.56;223111;187;138393;-65
2023/04/06 02:45:29;;;;;;;21.50;12.50;;;;;;;2.77;52.39;99372.79;219876;193;666438;-67
2023/04/06 02:50:35;;;;;;;193.80;128.80;;;;;;;2.70;52.09;99369.29;223197;188;136689;-66
2023/04/06 02:55:41;;;;;;;23.80;13.20;;;;;;;2.68;52.43;99374.24;223189;188;144379;-65
2023/04/06 03:00:49;;;;;;;18.10;10.40;;;;;;;2.66;51.53;99373.41;222999;187;138640;-68
2023/04/06 03:05:54;;;;;;;17.20;9.90;;;;;;;2.57;51.78;99381.52;223098;189;135978;-67
2023/04/06 03:11:03;;;;;;;18.50;10.40;;;;;;;2.50;51.80;99379.58;222845;190;143404;-67
2023/04/06 03:16:16;;;;;;;17.20;9.90;;;;;;;2.47;51.75;99380.52;223202;187;138381;-67
2023/04/06 03:21:35;;;;;;;19.70;12.50;;;;;;;2.42;52.55;99374.87;223608;185;135762;-65
2023/04/06 03:27:14;;;;;;;37.70;22.50;;;;;;;2.44;52.53;99376.92;223538;185;143640;-65
2023/04/06 03:32:21;;;;;;;15.60;9.20;;;;;;;2.47;52.21;99380.00;223610;186;138898;-67
2023/04/06 03:42:53;;;;;;;20.00;10.40;;;;;;;2.38;52.68;99386.86;220367;193;665759;-66
2023/04/06 03:48:30;;;;;;;19.00;10.70;;;;;;;2.31;52.63;99387.89;223288;187;136159;-66
2023/04/06 03:54:07;;;;;;;19.00;11.60;;;;;;;2.28;52.66;99383.77;223701;188;143745;-64
2023/04/06 04:05:13;;;;;;;19.90;12.10;;;;;;;2.30;53.14;99384.23;223238;187;136323;-72
2023/04/06 04:10:16;;;;;;;23.50;12.00;;;;;;;2.24;52.97;99386.14;223560;186;143277;-73
2023/04/06 04:15:19;;;;;;;19.90;11.80;;;;;;;2.19;53.14;99385.73;223751;183;138869;-71
2023/04/06 04:20:31;;;;;;;20.80;11.60;;;;;;;2.17;53.32;99382.45;223708;184;136621;-69
2023/04/06 04:26:35;;;;;;;22.60;11.70;;;;;;;2.18;53.18;99389.09;223892;185;144400;-72
2023/04/06 04:31:50;;;;;;;21.90;11.70;;;;;;;2.18;53.10;99378.77;223521;184;140998;-67
2023/04/06 04:37:54;;;;;;;22.90;12.20;;;;;;;2.19;53.16;99377.85;223776;183;137283;-64
2023/04/06 04:56:42;;;;;;;22.10;12.60;;;;;;;2.27;52.46;99370.86;223001;187;136812;-68
2023/04/06 05:02:14;;;;;;;20.20;12.70;;;;;;;2.35;51.86;99373.29;223866;182;145216;-65
2023/04/06 05:07:57;;;;;;;22.00;11.40;;;;;;;2.52;52.11;99371.14;223864;182;138778;-68
2023/04/06 05:13:51;;;;;;;25.00;11.20;;;;;;;2.54;51.75;99368.45;223968;182;136227;-66
2023/04/06 05:18:57;;;;;;;21.50;11.00;;;;;;;2.56;51.05;99364.73;223942;182;145365;-71
2023/04/06 05:24:40;;;;;;;20.80;12.30;;;;;;;2.56;50.89;99362.96;223953;183;138306;-67
2023/04/06 05:30:41;;;;;;;25.30;11.70;;;;;;;2.61;50.95;99363.02;224118;189;135908;-68
2023/04/06 05:37:40;;;;;;;18.40;11.00;;;;;;;2.75;50.60;99365.84;223930;183;144949;-66
2023/04/06 05:43:26;;;;;;;23.90;9.50;;;;;;;2.79;50.63;99355.92;223583;184;138051;-67
2023/04/06 07:05:49;;;;;;;12.50;7.90;;;;;;;3.91;48.87;99347.36;222142;193;670646;-74
2023/04/06 07:10:55;;;;;;;17.40;8.50;;;;;;;3.98;48.18;99349.46;223493;185;136041;-72
2023/04/06 07:15:59;;;;;;;;;;;;;;;4.08;48.24;99347.23;223901;183;143605;-71
2023/04/06 07:21:03;;;;;;;15.80;7.70;;;;;;;4.12;48.10;99349.55;223968;183;140041;-72
2023/04/06 07:26:09;;;;;;;13.40;7.80;;;;;;;4.19;48.12;99346.88;223820;183;135877;-67
2023/04/06 07:31:35;;;;;;;13.50;7.80;;;;;;;4.32;47.31;99345.79;223938;183;143367;-78
2023/04/06 07:37:24;;;;;;;10.10;6.70;;;;;;;4.40;46.89;99343.76;223813;183;140453;-72
2023/04/06 07:42:55;;;;;;;14.60;7.80;;;;;;;4.50;47.02;99346.06;223111;189;136264;-68
2023/04/06 07:48:06;;;;;;;11.00;6.90;;;;;;;4.57;46.92;99346.73;223637;186;144078;-67
2023/04/06 07:53:14;;;;;;;10.80;7.20;;;;;;;4.58;46.71;99338.98;223499;185;138563;-68
2023/04/06 07:58:57;;;;;;;13.40;7.10;;;;;;;4.63;46.09;99332.11;223689;184;137172;-72
2023/04/06 08:04:13;;;;;;;;;;;;;;;;;;;;;
2023/04/06 08:09:17;;;;;;;11.00;6.70;;;;;;;4.81;45.70;99328.33;223898;180;138801;-70
2023/04/06 08:14:21;;;;;;;10.90;6.60;;;;;;;4.91;45.03;99319.58;223912;182;136802;-69
2023/04/06 08:19:24;;;;;;;10.60;5.90;;;;;;;4.99;45.12;99315.07;223848;182;145474;-69
2023/04/06 08:24:27;;;;;;;12.10;6.20;;;;;;;4.98;43.63;99313.18;223967;182;139314;-70
2023/04/06 08:29:31;;;;;;;11.20;5.60;;;;;;;4.98;43.80;99306.65;223943;183;137151;-69
2023/04/06 08:34:34;;;;;;;11.20;6.00;;;;;;;5.12;44.45;99304.95;223942;181;145705;-69
2023/04/06 08:39:38;;;;;;;10.50;5.60;;;;;;;5.23;43.33;99308.77;223808;183;139201;-69
2023/04/06 08:44:41;;;;;;;10.40;5.60;;;;;;;5.25;42.85;99307.13;223874;182;136764;-67
2023/04/06 08:49:46;;;;;;;9.10;5.00;;;;;;;5.32;42.78;99296.31;223846;178;145761;-69
2023/04/06 08:54:52;;;;;;;43.10;28.50;;;;;;;5.43;43.90;99289.91;223708;182;139492;-69
2023/04/06 08:59:56;;;;;;;7.90;5.40;;;;;;;5.50;44.00;99285.45;223835;182;136593;-66
2023/04/06 09:05:01;;;;;;;12.00;5.20;;;;;;;5.41;43.02;99280.12;223763;181;146917;-67
2023/04/06 09:10:05;;;;;;;9.20;5.00;;;;;;;5.35;43.45;99278.61;223773;182;138295;-67
2023/04/06 09:15:19;;;;;;;10.00;5.10;;;;;;;5.33;43.97;99280.98;223827;182;136869;-68
2023/04/06 09:20:28;;;;;;;9.60;5.30;;;;;;;5.36;43.53;99280.16;223905;181;146285;-69
2023/04/06 09:25:32;;;;;;;8.40;5.30;;;;;;;5.33;43.68;99282.71;223886;182;138491;-67
2023/04/06 09:30:35;;;;;;;11.60;5.60;;;;;;;5.33;44.47;99283.77;223962;181;136212;-67
2023/04/06 09:35:39;;;;;;;8.20;4.90;;;;;;;5.39;44.67;99277.05;223853;181;145153;-67
2023/04/06 09:40:51;;;;;;;36.80;21.50;;;;;;;5.40;44.77;99270.66;223851;182;138167;-66
2023/04/06 09:46:04;;;;;;;9.90;6.20;;;;;;;5.41;44.99;99266.23;223708;181;137110;-67
2023/04/06 09:51:11;;;;;;;10.50;6.00;;;;;;;5.36;45.56;99266.59;223854;182;145198;-68
2023/04/06 09:56:20;;;;;;;9.30;5.30;;;;;;;5.37;46.16;99262.70;223841;182;138736;-70
2023/04/06 10:01:29;;;;;;;12.10;5.90;;;;;;;5.38;46.76;99259.14;223867;182;136853;-67
2023/04/06 10:06:35;;;;;;;9.80;6.20;;;;;;;5.41;46.31;99258.14;223780;181;146130;-70
2023/04/06 10:11:39;;;;;;;10.10;5.70;;;;;;;5.47;46.79;99255.99;223827;182;138562;-69
2023/04/06 10:16:43;;;;;;;14.70;5.60;;;;;;;5.53;47.28;99263.15;223731;181;137037;-67
2023/04/06 10:21:50;;;;;;;8.70;5.30;;;;;;;5.44;46.68;99258.58;223770;181;145150;-66
2023/04/06 10:27:03;;;;;;;10.10;5.60;;;;;;;5.28;47.29;99260.59;223737;182;139927;-67
2023/04/06 10:32:07;;;;;;;11.80;5.90;;;;;;;5.18;48.18;99258.65;223744;182;137073;-66
2023/04/06 10:37:15;;;;;;;11.20;6.30;;;;;;;5.11;49.22;99251.70;223893;182;145321;-68
2023/04/06 10:42:23;;;;;;;10.50;6.00;;;;;;;5.10;49.54;99250.67;223861;181;138417;-66
2023/04/06 10:47:26;;;;;;;8.70;5.50;;;;;;;5.11;49.86;99245.38;223827;181;136667;-67
2023/04/06 10:52:30;;;;;;;10.90;6.00;;;;;;;5.07;49.55;99243.77;223757;181;145405;-66
2023/04/06 10:57:34;;;;;;;8.80;5.70;;;;;;;5.02;50.11;99237.06;223799;181;139079;-67
2023/04/06 11:02:38;;;;;;;10.40;5.60;;;;;;;4.96;50.50;99236.58;223798;182;138172;-67
2023/04/06 11:07:44;;;;;;;9.70;5.10;;;;;;;4.91;51.07;99236.57;223903;182;147577;-66
2023/04/06 11:13:11;;;;;;;9.60;5.90;;;;;;;4.85;51.72;99230.11;223859;181;139319;-67
2023/04/06 11:18:27;;;;;;;11.80;6.20;;;;;;;4.79;52.35;99232.45;223746;182;135865;-66
2023/04/06 11:23:31;;;;;;;8.70;5.60;;;;;;;4.81;52.97;99228.67;223922;182;145287;-66
2023/04/06 11:28:36;;;;;;;8.70;5.70;;;;;;;4.77;53.56;99224.80;223820;182;138318;-66
2023/04/06 11:33:40;;;;;;;9.80;5.70;;;;;;;4.60;54.57;99223.27;223852;182;136291;-67
2023/04/06 11:42:55;;;;;;;9.70;5.60;;;;;;;4.56;56.02;99219.90;219879;190;666003;-67
2023/04/06 11:48:05;;;;;;;9.30;5.70;;;;;;;4.53;56.54;99221.74;220777;187;136207;-68
2023/04/06 11:53:12;;;;;;;7.70;5.80;;;;;;;4.55;56.65;99213.09;223494;185;143496;-70
2023/04/06 11:58:15;;;;;;;10.40;6.60;;;;;;;4.42;56.92;99213.34;223602;185;138586;-67
2023/04/06 12:03:19;;;;;;;8.50;6.20;;;;;;;4.44;57.48;99207.50;223576;185;136264;-69
2023/04/06 12:08:25;;;;;;;126.50;81.00;;;;;;;4.48;57.77;99211.21;223540;185;143524;-67
2023/04/06 12:13:28;;;;;;;15.70;9.00;;;;;;;4.49;58.93;99201.88;223742;184;138456;-64
2023/04/06 12:18:32;;;;;;;11.50;6.70;;;;;;;4.34;59.45;99202.39;223777;184;136324;-65
2023/04/06 12:23:36;;;;;;;9.80;6.10;;;;;;;4.38;59.99;99199.09;223888;182;143488;-65
2023/04/06 12:28:39;;;;;;;12.20;7.00;;;;;;;4.45;60.15;99196.56;223933;181;138088;-64
2023/04/06 12:33:46;;;;;;;9.90;6.70;;;;;;;4.45;60.52;99200.41;223780;181;136252;-64
2023/04/06 12:38:53;;;;;;;11.00;6.60;;;;;;;4.40;60.87;99190.23;223757;181;145349;-64
2023/04/06 12:43:56;;;;;;;7.90;5.80;;;;;;;4.36;61.18;99185.63;223813;182;138592;-64
2023/04/06 12:49:06;;;;;;;9.80;6.10;;;;;;;4.29;61.51;99176.56;224083;183;136264;-65
2023/04/06 13:43:00;;;;;;;13.10;8.40;;;;;;;4.35;63.83;99136.83;219896;192;666966;-64
2023/04/06 13:48:18;;;;;;;12.50;7.70;;;;;;;4.30;63.95;99139.46;222944;187;135741;-65
2023/04/06 13:53:22;;;;;;;14.60;8.50;;;;;;;4.29;64.02;99135.46;223440;185;143573;-65
2023/04/06 13:58:25;;;;;;;13.50;8.60;;;;;;;4.31;64.02;99130.48;224031;181;139192;-64
2023/04/06 14:03:29;;;;;;;12.10;8.10;;;;;;;4.26;64.26;99134.70;223919;181;137330;-64
2023/04/06 14:08:35;;;;;;;11.70;8.10;;;;;;;4.23;64.42;99141.14;223985;181;143633;-65
2023/04/06 15:25:30;;;;;;;14.70;8.90;;;;;;;4.59;64.70;99141.29;219875;194;666062;-69
2023/04/06 15:30:41;;;;;;;14.60;9.70;;;;;;;4.53;64.60;99146.75;223121;187;136224;-65
2023/04/06 15:35:45;;;;;;;15.30;9.80;;;;;;;4.47;64.65;99147.28;223613;185;144253;-64
2023/04/06 15:40:49;;;;;;;15.20;9.70;;;;;;;4.39;64.70;99147.23;223826;183;138602;-65
2023/04/06 15:45:53;;;;;;;13.60;9.50;;;;;;;4.20;64.92;99147.73;223829;183;136782;-66
2023/04/06 15:50:57;;;;;;;14.20;9.00;;;;;;;4.14;65.28;99153.20;223771;183;143682;-66
2023/04/06 15:56:08;;;;;;;15.20;10.00;;;;;;;4.12;65.68;99152.20;223919;183;139071;-66
2023/04/06 16:01:17;;;;;;;17.80;9.70;;;;;;;4.18;65.81;99152.36;223758;182;136546;-67
2023/04/06 16:06:20;;;;;;;14.60;10.30;;;;;;;4.21;65.67;99152.78;223806;183;143530;-67
2023/04/06 16:11:23;;;;;;;14.30;9.40;;;;;;;4.22;65.64;99152.74;223643;183;138310;-66
2023/04/06 16:16:26;;;;;;;12.10;9.50;;;;;;;4.19;65.81;99154.42;223739;183;139834;-71
2023/04/06 16:21:35;;;;;;;14.10;9.40;;;;;;;4.20;65.82;99154.94;223865;181;145364;-64
2023/04/06 16:26:50;;;;;;;15.70;9.40;;;;;;;4.24;65.91;99153.74;223768;182;138477;-64
2023/04/06 16:31:57;;;;;;;168.70;111.20;;;;;;;4.29;65.96;99151.98;223882;182;136337;-65
2023/04/06 16:42:55;;;;;;;14.70;10.80;;;;;;;4.36;65.80;99155.09;219812;193;666284;-68
2023/04/06 16:48:02;;;;;;;17.40;11.00;;;;;;;4.33;65.82;99150.28;221118;183;136503;-68
2023/04/06 16:53:06;;;;;;;17.80;11.80;;;;;;;4.32;65.94;99147.84;221152;183;145220;-69
2023/04/06 16:58:13;;;;;;;28.10;18.30;;;;;;;4.31;66.15;99142.10;221054;183;139130;-68
2023/04/06 17:03:17;;;;;;;16.00;12.00;;;;;;;4.29;66.07;99139.00;221555;185;137405;-67
2023/04/06 17:08:29;;;;;;;18.20;12.30;;;;;;;4.10;66.22;99133.31;223772;184;144244;-68
2023/04/06 17:13:39;;;;;;;17.70;12.30;;;;;;;4.03;66.58;99130.55;223669;183;138516;-67
2023/04/06 17:18:50;;;;;;;17.70;12.30;;;;;;;3.97;66.86;99132.36;223584;185;136452;-67
2023/04/06 17:24:39;;;;;;;133.80;78.50;;;;;;;3.92;67.22;99135.14;223822;184;143669;-67
2023/04/06 17:30:15;;;;;;;18.70;12.90;;;;;;;3.95;67.65;99136.99;223600;184;138450;-67
2023/04/06 17:35:48;;;;;;;23.00;14.50;;;;;;;4.04;67.45;99136.33;223544;184;137533;-68
2023/04/06 17:47:31;;;;;;;23.70;14.40;;;;;;;4.09;67.30;99141.09;223562;183;139253;-69
2023/04/06 17:52:48;;;;;;;21.70;14.40;;;;;;;4.13;67.25;99141.46;223683;182;137407;-65
2023/04/06 17:58:17;;;;;;;20.50;13.90;;;;;;;4.11;67.12;99137.66;223656;186;145954;-66
2023/04/06 18:03:58;;;;;;;20.40;14.90;;;;;;;4.09;67.22;99137.06;223404;185;138968;-70
2023/04/06 18:09:13;;;;;;;23.80;17.30;;;;;;;4.11;67.52;99138.02;223503;184;137532;-65
2023/04/06 18:14:44;;;;;;;22.10;14.10;;;;;;;4.10;67.36;99139.63;223753;184;145432;-66
2023/04/06 18:20:10;;;;;;;19.00;13.30;;;;;;;4.09;67.28;99142.85;223807;183;138373;-66
2023/04/06 18:43:05;;;;;;;90.30;53.50;;;;;;;4.12;67.27;99130.98;219904;192;665321;-68
2023/04/06 18:48:35;;;;;;;16.10;11.20;;;;;;;4.26;67.22;99134.34;221126;184;137202;-71
2023/04/06 18:53:55;;;;;;;15.90;11.20;;;;;;;4.28;66.81;99123.91;223617;183;145114;-68
2023/04/06 18:58:59;;;;;;;17.80;12.60;;;;;;;4.38;66.95;99127.06;223627;183;139075;-70
2023/04/06 19:04:03;;;;;;;17.30;12.10;;;;;;;4.36;66.79;99121.88;223790;184;136255;-72
2023/04/06 19:09:16;;;;;;;17.30;11.60;;;;;;;4.27;66.49;99117.98;223728;183;143890;-66
2023/04/06 19:14:20;;;;;;;16.20;12.00;;;;;;;4.22;66.54;99114.81;223851;184;138452;-67
2023/04/06 19:19:27;;;;;;;16.80;11.40;;;;;;;4.20;66.63;99111.92;223718;184;136234;-67
2023/04/06 19:24:36;;;;;;;16.10;12.00;;;;;;;4.14;66.66;99110.70;223696;183;145078;-68
2023/04/06 20:01:49;;;;;;;16.20;12.70;;;;;;;4.06;67.54;99090.98;223962;218;146002;-70
2023/04/06 20:06:59;;;;;;;17.90;13.60;;;;;;;4.03;67.58;99092.48;223505;185;140255;-65
2023/04/06 20:12:33;;;;;;;19.30;13.80;;;;;;;4.04;67.62;99095.79;223460;185;137009;-65
2023/04/06 21:45:31;;;;;;;27.30;20.90;;;;;;;3.80;68.93;99042.55;219281;193;665074;-77
2023/04/06 21:50:38;;;;;;;25.80;19.70;;;;;;;3.76;68.94;99041.29;223520;185;137207;-78
2023/04/06 21:55:45;;;;;;;28.10;21.40;;;;;;;3.82;69.01;99038.11;223742;183;144177;-78
2023/04/06 22:00:48;;;;;;;30.50;22.40;;;;;;;3.87;68.95;99041.98;223681;183;138604;-77
2023/04/06 22:05:52;;;;;;;31.80;23.40;;;;;;;3.86;68.88;99033.21;223709;183;136793;-80
2023/04/06 22:10:55;;;;;;;30.70;21.90;;;;;;;3.85;68.89;99028.52;223747;183;144826;-79
2023/04/06 22:15:58;;;;;;;28.00;21.20;;;;;;;3.79;68.84;99021.17;223670;183;138420;-79
2023/04/06 22:21:02;;;;;;;30.60;21.90;;;;;;;3.70;69.06;99018.70;223627;184;173981;-78
2023/04/06 22:26:07;;;;;;;31.00;22.00;;;;;;;3.74;69.09;99013.97;223734;183;143629;-78
2023/04/06 22:31:10;;;;;;;27.70;21.50;;;;;;;3.74;69.09;99009.77;223867;183;138922;-78
2023/04/06 22:36:13;;;;;;;32.70;22.80;;;;;;;3.73;69.16;99011.20;223741;182;137506;-78
2023/04/06 22:41:17;;;;;;;32.90;22.80;;;;;;;3.77;69.11;99006.50;218206;183;146006;-77
2023/04/06 22:46:22;;;;;;;29.10;21.70;;;;;;;3.80;68.99;99003.96;222749;181;138555;-78
2023/04/06 22:51:26;;;;;;;28.70;21.90;;;;;;;3.82;69.11;98993.34;224091;181;136704;-79
2023/04/06 22:56:30;;;;;;;31.20;22.50;;;;;;;3.97;68.99;98991.21;223910;182;145154;-79
2023/04/06 23:01:33;;;;;;;32.30;23.40;;;;;;;4.04;68.62;98978.88;223844;181;138850;-77
2023/04/06 23:06:36;;;;;;;29.80;22.30;;;;;;;3.95;68.67;98982.55;223898;181;135908;-76
2023/04/06 23:11:40;;;;;;;31.90;23.30;;;;;;;3.91;68.77;98976.88;223898;181;145325;-76
2023/04/06 23:16:44;;;;;;;31.00;22.00;;;;;;;3.92;68.70;98975.27;223900;181;139066;-77
2023/04/06 23:21:47;;;;;;;27.20;22.20;;;;;;;3.88;68.66;98971.52;224004;181;136331;-76
2023/04/06 23:26:50;;;;;;;30.80;23.20;;;;;;;3.84;68.84;98967.50;223856;181;145998;-76
2023/04/06 23:31:54;;;;;;;30.00;22.00;;;;;;;3.83;68.97;98966.30;222884;182;138111;-76
2023/04/06 23:37:01;;;;;;;27.00;20.70;;;;;;;3.77;68.96;98957.20;223851;181;136729;-76
2023/04/06 23:42:05;;;;;;;29.50;20.90;;;;;;;3.69;69.08;98959.07;223863;181;145233;-78
2023/04/06 23:47:08;;;;;;;27.50;21.50;;;;;;;3.71;69.38;98953.05;223805;181;139073;-78
2023/04/06 23:52:11;;;;;;;30.10;21.80;;;;;;;3.82;69.41;98948.26;224023;181;137515;-77
2023/04/06 23:57:15;;;;;;;27.60;20.40;;;;;;;3.83;69.28;98945.26;223941;181;145174;-77
